createdAt,value
2022-12-01T00:02:12.278Z,21.89
2022-12-01T00:05:15.474Z,21.95
2022-12-01T00:08:19.748Z,21.96
2022-12-01T00:11:21.838Z,21.96
2022-12-01T00:14:26.555Z,21.96
2022-12-01T00:17:31.023Z,21.93
2022-12-01T00:20:35.085Z,21.93
2022-12-01T00:23:38.153Z,21.94
2022-12-01T00:26:41.282Z,21.94
2022-12-01T00:29:47.138Z,21.94
2022-12-01T00:32:50.596Z,21.94
2022-12-01T00:35:59.625Z,21.94
2022-12-01T00:39:02.669Z,21.89
2022-12-01T00:42:11.636Z,21.90
2022-12-01T00:45:17.616Z,21.94
2022-12-01T00:48:20.684Z,21.98
2022-12-01T00:51:24.585Z,21.96
2022-12-01T00:54:27.646Z,21.93
2022-12-01T00:57:30.683Z,21.96
2022-12-01T01:00:38.718Z,21.85
2022-12-01T01:03:41.819Z,21.95
2022-12-01T01:06:45.042Z,21.90
2022-12-01T01:09:48.472Z,21.93
2022-12-01T01:12:51.602Z,21.93
2022-12-01T01:16:00.916Z,21.94
2022-12-01T01:19:03.991Z,21.91
2022-12-01T01:22:07.121Z,21.91
2022-12-01T01:25:10.536Z,21.92
2022-12-01T01:28:13.601Z,21.84
2022-12-01T01:31:20.714Z,21.94
2022-12-01T01:34:23.818Z,21.94
2022-12-01T01:37:27.006Z,21.94
2022-12-01T01:40:30.162Z,21.95
2022-12-01T01:43:54.980Z,21.93
2022-12-01T01:46:59.709Z,21.94
2022-12-01T01:50:06.681Z,21.90
2022-12-01T01:53:13.800Z,21.94
2022-12-01T01:56:16.825Z,21.91
2022-12-01T01:59:25.489Z,21.94
2022-12-01T02:02:29.991Z,21.95
2022-12-01T02:05:35.604Z,21.96
2022-12-01T02:08:39.112Z,21.95
2022-12-01T02:12:07.201Z,21.95
2022-12-01T02:15:24.510Z,21.95
2022-12-01T02:18:38.741Z,21.94
2022-12-01T02:22:00.251Z,21.86
2022-12-01T02:25:25.035Z,21.85
2022-12-01T02:28:48.019Z,21.94
2022-12-01T02:32:00.474Z,21.97
2022-12-01T02:35:14.580Z,21.94
2022-12-01T02:38:25.970Z,21.94
2022-12-01T02:41:34.139Z,21.92
2022-12-01T02:44:43.699Z,21.93
2022-12-01T02:47:50.442Z,21.95
2022-12-01T02:50:56.751Z,21.95
2022-12-01T02:54:01.772Z,21.94
2022-12-01T02:57:05.253Z,21.94
2022-12-01T03:00:13.568Z,21.94
2022-12-01T03:03:34.332Z,21.94
2022-12-01T03:06:49.335Z,21.95
2022-12-01T03:10:05.285Z,21.94
2022-12-01T03:13:18.181Z,21.94
2022-12-01T03:16:29.060Z,21.89
2022-12-01T03:19:38.614Z,21.94
2022-12-01T03:22:45.694Z,21.94
2022-12-01T03:25:53.056Z,21.91
2022-12-01T03:29:04.562Z,21.92
2022-12-01T03:32:11.455Z,21.94
2022-12-01T03:35:20.918Z,21.95
2022-12-01T03:38:27.102Z,21.95
2022-12-01T03:41:45.193Z,21.94
2022-12-01T03:44:51.763Z,21.93
2022-12-01T03:47:55.036Z,21.89
2022-12-01T03:51:06.886Z,21.92
2022-12-01T03:54:16.504Z,21.92
2022-12-01T03:57:26.617Z,21.93
2022-12-01T04:00:31.369Z,21.91
2022-12-01T04:03:35.220Z,21.91
2022-12-01T04:06:41.833Z,21.93
2022-12-01T04:09:44.932Z,21.94
2022-12-01T04:12:48.005Z,21.94
2022-12-01T04:15:51.679Z,21.99
2022-12-01T04:18:54.777Z,21.99
2022-12-01T04:21:59.314Z,22.03
2022-12-01T04:25:02.427Z,22.00
2022-12-01T04:28:05.771Z,21.97
2022-12-01T04:31:08.813Z,22.01
2022-12-01T04:34:12.289Z,22.02
2022-12-01T04:37:17.144Z,22.03
2022-12-01T04:40:21.713Z,22.01
2022-12-01T04:43:24.688Z,22.00
2022-12-01T04:46:27.950Z,21.96
2022-12-01T04:49:31.304Z,21.93
2022-12-01T04:52:38.099Z,21.95
2022-12-01T04:55:41.152Z,21.43
2022-12-01T04:58:44.517Z,21.02
2022-12-01T05:01:48.429Z,20.92
2022-12-01T05:04:51.541Z,19.15
2022-12-01T05:07:56.202Z,19.19
2022-12-01T05:10:59.310Z,20.22
2022-12-01T05:14:02.827Z,20.77
2022-12-01T05:17:05.910Z,21.14
2022-12-01T05:20:37.456Z,21.44
2022-12-01T05:23:42.051Z,21.62
2022-12-01T05:26:45.960Z,21.67
2022-12-01T05:29:49.240Z,21.73
2022-12-01T05:32:52.525Z,21.79
2022-12-01T05:35:55.999Z,21.70
2022-12-01T05:39:00.466Z,21.80
2022-12-01T05:42:03.442Z,21.85
2022-12-01T05:45:07.412Z,21.86
2022-12-01T05:48:10.553Z,21.88
2022-12-01T05:51:15.431Z,21.89
2022-12-01T05:54:19.863Z,21.89
2022-12-01T05:57:22.915Z,21.91
2022-12-01T06:00:25.939Z,21.91
2022-12-01T06:03:29.030Z,21.90
2022-12-01T06:06:32.132Z,21.91
2022-12-01T06:09:36.604Z,21.91
2022-12-01T06:12:39.994Z,21.90
2022-12-01T06:15:43.091Z,21.92
2022-12-01T06:18:46.083Z,21.95
2022-12-01T06:21:49.162Z,21.97
2022-12-01T06:24:53.612Z,22.00
2022-12-01T06:27:57.734Z,22.01
2022-12-01T06:31:03.467Z,22.01
2022-12-01T06:34:07.048Z,22.06
2022-12-01T06:37:10.085Z,22.08
2022-12-01T06:40:15.187Z,22.11
2022-12-01T06:43:18.230Z,22.14
2022-12-01T06:46:21.224Z,22.17
2022-12-01T06:49:24.415Z,22.21
2022-12-01T06:52:27.432Z,22.28
2022-12-01T06:55:31.855Z,22.26
2022-12-01T06:58:35.762Z,22.27
2022-12-01T07:01:39.374Z,22.28
2022-12-01T07:04:42.634Z,22.28
2022-12-01T07:07:45.805Z,22.28
2022-12-01T07:10:57.950Z,22.29
2022-12-01T07:14:01.022Z,22.28
2022-12-01T07:17:04.162Z,22.26
2022-12-01T07:20:10.261Z,22.21
2022-12-01T07:23:13.308Z,22.26
2022-12-01T07:26:19.074Z,22.26
2022-12-01T07:29:22.179Z,22.22
2022-12-01T07:32:25.477Z,22.22
2022-12-01T07:35:28.556Z,22.23
2022-12-01T07:38:32.223Z,22.23
2022-12-01T07:41:37.324Z,22.23
2022-12-01T07:44:40.347Z,22.21
2022-12-01T07:47:44.639Z,22.22
2022-12-01T07:50:47.622Z,22.23
2022-12-01T07:53:52.564Z,22.23
2022-12-01T07:56:56.982Z,22.22
2022-12-01T07:59:59.990Z,22.20
2022-12-01T08:03:03.115Z,22.21
2022-12-01T08:06:07.441Z,22.20
2022-12-01T08:09:10.613Z,22.20
2022-12-01T08:12:15.044Z,22.21
2022-12-01T08:15:18.322Z,22.18
2022-12-01T08:18:21.461Z,22.21
2022-12-01T08:21:25.336Z,22.20
2022-12-01T08:24:28.385Z,22.09
2022-12-01T08:27:32.834Z,22.10
2022-12-01T08:30:35.951Z,22.07
2022-12-01T08:33:39.039Z,22.02
2022-12-01T08:36:42.067Z,22.03
2022-12-01T08:39:45.144Z,22.02
2022-12-01T08:42:49.583Z,22.03
2022-12-01T08:45:52.668Z,22.01
2022-12-01T08:48:57.849Z,22.01
2022-12-01T08:52:01.206Z,22.01
2022-12-01T08:55:05.286Z,21.96
2022-12-01T08:58:09.751Z,22.00
2022-12-01T09:01:15.262Z,22.01
2022-12-01T09:04:19.236Z,22.01
2022-12-01T09:07:26.407Z,22.01
2022-12-01T09:10:30.001Z,21.98
2022-12-01T09:13:35.804Z,22.01
2022-12-01T09:16:38.942Z,22.01
2022-12-01T09:19:42.157Z,22.02
2022-12-01T09:22:45.195Z,21.97
2022-12-01T09:25:50.919Z,22.04
2022-12-01T09:28:57.783Z,22.03
2022-12-01T09:32:01.609Z,22.05
2022-12-01T09:35:04.863Z,22.03
2022-12-01T09:38:07.921Z,22.00
2022-12-01T09:41:18.300Z,22.02
2022-12-01T09:44:33.589Z,22.06
2022-12-01T09:47:38.769Z,22.15
2022-12-01T09:50:42.073Z,22.21
2022-12-01T09:53:46.216Z,22.22
2022-12-01T09:56:53.525Z,22.22
2022-12-01T09:59:59.309Z,22.29
2022-12-01T10:03:08.879Z,22.29
2022-12-01T10:06:32.275Z,22.30
2022-12-01T10:09:41.384Z,22.27
2022-12-01T10:12:48.146Z,22.30
2022-12-01T10:15:59.105Z,22.31
2022-12-01T10:19:10.025Z,22.31
2022-12-01T10:22:37.090Z,22.33
2022-12-01T10:25:49.004Z,22.31
2022-12-01T10:29:03.482Z,22.35
2022-12-01T10:32:18.683Z,22.29
2022-12-01T10:35:24.272Z,22.30
2022-12-01T10:38:30.504Z,22.04
2022-12-01T10:41:36.248Z,22.23
2022-12-01T10:44:40.273Z,22.21
2022-12-01T10:48:15.399Z,22.25
2022-12-01T10:51:20.632Z,22.26
2022-12-01T10:54:28.134Z,22.27
2022-12-01T10:57:38.360Z,22.29
2022-12-01T11:00:59.678Z,22.26
2022-12-01T11:04:08.571Z,22.24
2022-12-01T11:07:17.769Z,22.26
2022-12-01T11:10:24.258Z,22.28
2022-12-01T11:13:30.615Z,22.28
2022-12-01T11:16:40.429Z,22.26
2022-12-01T11:19:45.005Z,22.23
2022-12-01T11:22:48.520Z,22.27
2022-12-01T11:26:00.292Z,22.26
2022-12-01T11:29:06.073Z,22.25
2022-12-01T11:32:18.658Z,22.21
2022-12-01T11:35:27.108Z,22.21
2022-12-01T11:38:35.070Z,22.27
2022-12-01T11:41:42.732Z,22.28
2022-12-01T11:44:52.177Z,22.27
2022-12-01T11:48:12.698Z,22.27
2022-12-01T11:51:32.515Z,22.25
2022-12-01T11:54:39.707Z,22.26
2022-12-01T11:57:46.676Z,22.28
2022-12-01T12:00:58.288Z,22.28
2022-12-01T12:04:18.569Z,22.20
2022-12-01T12:07:32.615Z,22.28
2022-12-01T12:10:47.665Z,22.15
2022-12-01T12:14:09.149Z,22.29
2022-12-01T12:17:32.290Z,22.24
2022-12-01T12:20:48.097Z,22.26
2022-12-01T12:24:23.648Z,22.25
2022-12-01T12:27:34.970Z,22.24
2022-12-01T12:30:47.851Z,22.25
2022-12-01T12:34:29.200Z,22.23
2022-12-01T12:37:43.010Z,22.23
2022-12-01T12:40:56.098Z,22.21
2022-12-01T12:44:12.173Z,22.17
2022-12-01T12:47:39.974Z,22.23
2022-12-01T12:50:48.446Z,22.21
2022-12-01T12:53:58.198Z,22.22
2022-12-01T12:57:07.263Z,22.22
2022-12-01T13:00:17.199Z,22.14
2022-12-01T13:03:30.636Z,22.21
2022-12-01T13:06:43.265Z,22.16
2022-12-01T13:09:52.441Z,22.22
2022-12-01T13:13:01.905Z,22.21
2022-12-01T13:16:08.211Z,22.22
2022-12-01T13:19:15.562Z,22.22
2022-12-01T13:22:31.106Z,22.18
2022-12-01T13:25:39.635Z,22.19
2022-12-01T13:28:48.822Z,22.22
2022-12-01T13:31:53.871Z,22.22
2022-12-01T13:34:57.906Z,22.22
2022-12-01T13:38:25.043Z,22.22
2022-12-01T13:41:30.887Z,22.24
2022-12-01T13:44:43.117Z,22.24
2022-12-01T13:47:52.415Z,22.24
2022-12-01T13:51:01.216Z,22.26
2022-12-01T13:54:07.237Z,22.24
2022-12-01T13:57:15.079Z,22.25
2022-12-01T14:00:25.978Z,22.17
2022-12-01T14:03:41.679Z,22.24
2022-12-01T14:06:49.613Z,22.24
2022-12-01T14:09:54.649Z,22.25
2022-12-01T14:13:02.823Z,22.28
2022-12-01T14:16:08.004Z,22.28
2022-12-01T14:19:34.231Z,22.24
2022-12-01T14:22:40.679Z,22.26
2022-12-01T14:25:57.230Z,22.24
2022-12-01T14:29:24.826Z,22.23
2022-12-01T14:32:29.291Z,22.24
2022-12-01T14:35:33.522Z,22.25
2022-12-01T14:38:36.675Z,22.24
2022-12-01T14:41:44.909Z,22.23
2022-12-01T14:44:52.956Z,22.23
2022-12-01T14:48:04.089Z,22.23
2022-12-01T14:51:18.163Z,22.22
2022-12-01T14:54:27.629Z,22.21
2022-12-01T14:57:34.499Z,22.22
2022-12-01T15:00:39.456Z,22.22
2022-12-01T15:03:48.110Z,22.24
2022-12-01T15:06:56.434Z,22.25
2022-12-01T15:10:02.172Z,22.20
2022-12-01T15:13:14.280Z,22.26
2022-12-01T15:16:19.762Z,22.25
2022-12-01T15:19:44.000Z,22.26
2022-12-01T15:22:47.174Z,22.19
2022-12-01T15:25:50.279Z,22.26
2022-12-01T15:29:06.127Z,22.27
2022-12-01T15:32:15.572Z,22.28
2022-12-01T15:35:22.273Z,22.27
2022-12-01T15:38:28.386Z,22.22
2022-12-01T15:41:31.693Z,22.28
2022-12-01T15:44:37.472Z,22.30
2022-12-01T15:47:49.709Z,22.28
2022-12-01T15:51:15.702Z,22.19
2022-12-01T15:54:22.376Z,22.27
2022-12-01T15:57:25.823Z,22.21
2022-12-01T16:00:29.185Z,22.22
2022-12-01T16:03:33.358Z,22.28
2022-12-01T16:06:39.981Z,22.27
2022-12-01T16:09:44.929Z,22.24
2022-12-01T16:12:48.000Z,22.21
2022-12-01T16:15:51.035Z,22.27
2022-12-01T16:18:56.977Z,22.24
2022-12-01T16:22:06.263Z,22.20
2022-12-01T16:25:18.409Z,22.27
2022-12-01T16:28:23.824Z,22.19
2022-12-01T16:31:27.786Z,22.30
2022-12-01T16:34:45.971Z,22.32
2022-12-01T16:37:51.077Z,22.35
2022-12-01T16:40:57.234Z,22.35
2022-12-01T16:44:26.956Z,22.34
2022-12-01T16:47:25.110Z,22.34
2022-12-01T16:50:28.284Z,22.39
2022-12-01T16:53:33.111Z,22.39
2022-12-01T16:56:36.229Z,22.43
2022-12-01T16:59:39.404Z,22.33
2022-12-01T17:02:42.487Z,22.46
2022-12-01T17:05:45.692Z,22.43
2022-12-01T17:08:50.268Z,22.42
2022-12-01T17:11:53.510Z,22.40
2022-12-01T17:14:56.744Z,22.37
2022-12-01T17:17:59.849Z,22.38
2022-12-01T17:21:05.240Z,22.37
2022-12-01T17:24:09.958Z,22.34
2022-12-01T17:27:13.124Z,22.34
2022-12-01T17:30:16.388Z,22.17
2022-12-01T17:33:19.625Z,22.36
2022-12-01T17:36:22.687Z,22.38
2022-12-01T17:39:27.153Z,22.34
2022-12-01T17:42:31.974Z,22.31
2022-12-01T17:45:37.784Z,22.31
2022-12-01T17:48:49.671Z,22.33
2022-12-01T17:51:52.936Z,22.33
2022-12-01T17:54:58.107Z,22.30
2022-12-01T17:58:01.157Z,22.33
2022-12-01T18:01:05.206Z,22.32
2022-12-01T18:04:08.383Z,22.28
2022-12-01T18:07:11.570Z,22.25
2022-12-01T18:10:16.177Z,22.29
2022-12-01T18:13:21.237Z,22.23
2022-12-01T18:16:27.001Z,22.28
2022-12-01T18:19:30.107Z,22.28
2022-12-01T18:22:33.538Z,22.28
2022-12-01T18:25:38.915Z,22.23
2022-12-01T18:28:41.906Z,22.20
2022-12-01T18:31:45.217Z,22.20
2022-12-01T18:34:48.732Z,22.18
2022-12-01T18:37:52.117Z,22.21
2022-12-01T18:40:59.945Z,22.23
2022-12-01T18:44:03.505Z,22.25
2022-12-01T18:47:06.703Z,22.26
2022-12-01T18:50:10.735Z,22.26
2022-12-01T18:53:13.806Z,22.26
2022-12-01T18:56:19.826Z,22.26
2022-12-01T18:59:23.084Z,22.23
2022-12-01T19:02:26.511Z,22.23
2022-12-01T19:05:30.745Z,22.21
2022-12-01T19:08:33.862Z,22.22
2022-12-01T19:11:40.492Z,22.22
2022-12-01T19:14:43.697Z,22.23
2022-12-01T19:17:46.817Z,22.24
2022-12-01T19:20:50.163Z,22.31
2022-12-01T19:23:54.239Z,22.33
2022-12-01T19:26:58.719Z,22.37
2022-12-01T19:30:01.746Z,22.39
2022-12-01T19:33:04.865Z,22.40
2022-12-01T19:36:10.130Z,22.41
2022-12-01T19:39:13.128Z,22.47
2022-12-01T19:42:18.289Z,22.46
2022-12-01T19:45:21.495Z,22.45
2022-12-01T19:48:24.677Z,22.49
2022-12-01T19:51:30.529Z,22.49
2022-12-01T19:54:35.433Z,22.50
2022-12-01T19:57:39.934Z,22.52
2022-12-01T20:00:42.996Z,22.51
2022-12-01T20:03:47.242Z,22.55
2022-12-01T20:06:51.578Z,22.55
2022-12-01T20:09:54.799Z,22.54
2022-12-01T20:12:59.429Z,22.51
2022-12-01T20:16:04.274Z,22.56
2022-12-01T20:19:07.605Z,22.57
2022-12-01T20:22:11.082Z,22.57
2022-12-01T20:25:14.350Z,22.56
2022-12-01T20:28:18.820Z,22.59
2022-12-01T20:31:24.034Z,22.52
2022-12-01T20:34:29.976Z,22.61
2022-12-01T20:37:33.137Z,22.62
2022-12-01T20:40:36.162Z,22.57
2022-12-01T20:43:40.823Z,22.59
2022-12-01T20:46:45.864Z,22.57
2022-12-01T20:49:49.898Z,22.58
2022-12-01T20:52:55.117Z,22.56
2022-12-01T20:55:58.265Z,22.58
2022-12-01T20:59:02.772Z,22.60
2022-12-01T21:02:06.328Z,22.62
2022-12-01T21:05:09.649Z,22.62
2022-12-01T21:08:14.966Z,22.54
2022-12-01T21:11:40.359Z,22.62
2022-12-01T21:14:48.564Z,22.64
2022-12-01T21:17:57.751Z,22.61
2022-12-01T21:21:08.000Z,22.63
2022-12-01T21:24:14.771Z,22.62
2022-12-01T21:27:18.872Z,22.58
2022-12-01T21:30:26.239Z,22.55
2022-12-01T21:33:33.072Z,22.56
2022-12-01T21:36:36.257Z,22.53
2022-12-01T21:39:40.447Z,22.49
2022-12-01T21:42:43.636Z,22.50
2022-12-01T21:45:52.422Z,22.39
2022-12-01T21:48:56.486Z,22.47
2022-12-01T21:52:00.112Z,22.38
2022-12-01T21:55:10.342Z,22.43
2022-12-01T21:58:35.646Z,22.38
2022-12-01T22:01:41.975Z,22.42
2022-12-01T22:04:45.452Z,22.42
2022-12-01T22:07:48.601Z,22.21
2022-12-01T22:10:56.632Z,22.40
2022-12-01T22:14:06.042Z,22.39
2022-12-01T22:17:19.836Z,22.41
2022-12-01T22:20:23.962Z,22.41
2022-12-01T22:23:33.175Z,22.41
2022-12-01T22:26:37.968Z,22.37
2022-12-01T22:29:43.253Z,22.41
2022-12-01T22:32:56.995Z,22.32
2022-12-01T22:36:00.056Z,22.38
2022-12-01T22:39:10.889Z,22.37
2022-12-01T22:42:19.740Z,22.36
2022-12-01T22:45:25.460Z,22.28
2022-12-01T22:48:38.313Z,22.32
2022-12-01T22:51:44.070Z,22.38
2022-12-01T22:54:50.109Z,22.37
2022-12-01T22:57:53.832Z,22.37
2022-12-01T23:00:59.011Z,22.37
2022-12-01T23:04:21.482Z,22.29
2022-12-01T23:07:32.683Z,22.36
2022-12-01T23:10:36.385Z,22.35
2022-12-01T23:13:39.420Z,22.27
2022-12-01T23:16:42.751Z,22.30
2022-12-01T23:19:47.553Z,22.34
2022-12-01T23:22:50.642Z,22.35
2022-12-01T23:25:53.819Z,22.36
2022-12-01T23:28:59.148Z,22.34
2022-12-01T23:32:02.635Z,22.34
2022-12-01T23:35:11.703Z,22.33
2022-12-01T23:38:20.077Z,22.33
2022-12-01T23:41:26.522Z,22.31
2022-12-01T23:44:38.143Z,22.35
2022-12-01T23:47:41.469Z,22.33
2022-12-01T23:50:46.890Z,22.33
2022-12-01T23:53:51.028Z,22.34
2022-12-01T23:56:55.748Z,22.34
